Data for 12/02/2012

Time Sea-Level Adjusted Pressure Absolute Pressure Temperature Relative Humidity Dew Point   
(mb) (inHg) (mb) (inHg) (C) (F) (%) (C) (F)
00:05 1009 29.8 839 24.78 9.3 48.7 36 -5.1 22.9
00:10 1009 29.8 839 24.78 9.3 48.7 35 -5.5 22.1
00:15 1010 29.83 839 24.78 9.4 48.8 36 -4.9 23.2
00:20 1010 29.83 839 24.78 9.1 48.5 37 -4.8 23.4
00:25 1010 29.83 839 24.78 9 48.3 37 -4.7 23.5
00:30 1009 29.8 839 24.78 9.1 48.4 37 -4.9 23.2
00:35 1009 29.8 839 24.78 9.2 48.6 35 -5.3 22.4
00:40 1009 29.8 838 24.75 9.6 49.2 35 -5.3 22.4
00:45 1009 29.8 838 24.75 9.6 49.2 35 -5.2 22.6
00:50 1009 29.8 838 24.75 9.4 49 37 -4.6 23.6
00:55 1009 29.8 838 24.75 9.4 48.9 35 -5.4 22.3
01:00 1009 29.8 838 24.75 9.7 49.5 35 -4.9 23.2
01:05 1009 29.8 838 24.75 9.6 49.3 36 -4.7 23.5
01:10 1008 29.77 838 24.75 9.6 49.3 36 -4.7 23.6
01:15 1008 29.77 838 24.75 9.7 49.5 35 -5 23.1
01:20 1008 29.77 838 24.75 9.8 49.7 36 -4.4 24.2
01:25 1008 29.77 838 24.75 9.8 49.7 36 -4.5 24
01:30 1008 29.77 838 24.75 10 49.9 35 -4.7 23.5
01:35 1009 29.8 838 24.75 10.2 50.4 36 -4.3 24.3
01:40 1009 29.8 838 24.75 10.3 50.5 35 -4.6 23.7
01:45 1008 29.77 838 24.75 10.4 50.7 35 -4.4 24
01:50 1008 29.77 838 24.75 10.6 51.1 35 -4.4 24.1
01:55 1008 29.77 838 24.75 10.7 51.2 35 -4.1 24.7
02:00 1008 29.77 837 24.72 10.6 51 36 -3.8 25.1
02:05 1008 29.77 837 24.72 10.4 50.8 36 -4 24.8
02:10 1008 29.77 837 24.72 10.4 50.8 37 -3.7 25.3
02:15 1008 29.77 837 24.72 10.1 50.1 38 -3.5 25.7
02:20 1008 29.77 837 24.72 10.1 50.1 37 -3.8 25.2
02:25 1008 29.77 837 24.72 10.3 50.5 38 -3.5 25.6
02:30 1008 29.77 837 24.72 10.2 50.4 39 -3.2 26.2
02:35 1008 29.77 837 24.72 10 50 40 -2.8 27
02:40 1008 29.77 837 24.72 9.7 49.5 43 -2.2 28
02:45 1008 29.77 837 24.72 9.4 48.8 43 -2.5 27.6
02:50 1008 29.77 837 24.72 9.5 49 43 -2.6 27.4
02:55 1008 29.77 837 24.72 9.8 49.6 42 -2.4 27.7
03:00 1007 29.74 837 24.72 9.7 49.4 43 -2.2 28.1
03:05 1007 29.74 836 24.69 9.6 49.2 44 -2.2 28.1
03:10 1007 29.74 836 24.69 9.4 48.9 45 -1.9 28.5
03:15 1007 29.74 836 24.69 9.2 48.6 44 -2.5 27.6
03:20 1007 29.74 836 24.69 9.6 49.2 41 -2.9 26.8
03:25 1007 29.74 836 24.69 10.2 50.3 40 -2.8 26.9
03:30 1007 29.74 836 24.69 10.4 50.8 39 -2.9 26.7
03:35 1007 29.74 836 24.69 10.5 51 38 -3.1 26.4
03:40 1007 29.74 836 24.69 10.7 51.2 39 -2.6 27.4
03:45 1007 29.74 836 24.69 10.5 50.9 39 -2.9 26.7
03:50 1007 29.74 836 24.69 10.6 51 38 -3.1 26.4
03:55 1007 29.74 836 24.69 10.7 51.3 38 -2.9 26.8
04:00 1007 29.74 836 24.69 10.9 51.6 37 -3.3 26
04:05 1006 29.71 836 24.69 10.9 51.6 38 -2.9 26.9
04:10 1006 29.71 835 24.66 10.9 51.6 37 -3.2 26.2
04:15 1006 29.71 835 24.66 10.7 51.3 38 -3.1 26.4
04:20 1006 29.71 835 24.66 10.5 50.9 38 -3 26.6
04:25 1006 29.71 835 24.66 10.4 50.7 39 -3.1 26.5
04:30 1006 29.71 835 24.66 10.5 50.8 39 -2.9 26.8
04:35 1006 29.71 835 24.66 10.5 50.9 38 -3.3 26.1
04:40 1006 29.71 835 24.66 10.5 50.9 39 -2.8 27
04:45 1005 29.68 835 24.66 10.5 50.8 39 -2.8 27
04:50 1005 29.68 835 24.66 10.4 50.8 38 -3.3 26
04:55 1005 29.68 834 24.63 10.7 51.2 38 -3.1 26.5
05:00 1005 29.68 834 24.63 10.7 51.3 37 -3.3 26.1
05:05 1005 29.68 834 24.63 10.9 51.5 36 -3.5 25.7
05:10 1005 29.68 834 24.63 11.1 52 35 -3.7 25.4
05:15 1005 29.68 834 24.63 11.2 52.1 36 -3.2 26.3
05:20 1005 29.68 834 24.63 11.1 51.9 37 -2.9 26.7
05:25 1004 29.65 834 24.63 11.2 52.2 37 -3 26.6
05:30 1004 29.65 833 24.6 11.2 52.1 37 -3.1 26.4
05:35 1004 29.65 833 24.6 11.2 52.2 37 -2.8 26.9
05:40 1004 29.65 833 24.6 11.2 52.2 37 -2.9 26.7
05:45 1004 29.65 833 24.6 11.3 52.3 37 -3 26.6
05:50 1004 29.65 833 24.6 11.3 52.4 36 -3.1 26.5
05:55 1004 29.65 833 24.6 11.2 52.2 36 -3.2 26.3
06:00 1003 29.62 833 24.6 11.4 52.5 36 -3 26.6
06:05 1003 29.62 832 24.57 11.3 52.4 36 -3.1 26.4
06:10 1003 29.62 832 24.57 11.4 52.5 36 -3.1 26.5
06:15 1003 29.62 832 24.57 11.5 52.7 35 -3.4 25.8
06:20 1003 29.62 832 24.57 11.6 52.8 36 -2.9 26.8
06:25 1003 29.62 832 24.57 11.4 52.4 36 -3.2 26.2
06:30 1003 29.62 832 24.57 11.4 52.6 35 -3.5 25.6
06:35 1003 29.62 832 24.57 11.5 52.7 35 -3.2 26.2
06:40 1003 29.62 832 24.57 11.5 52.7 36 -3 26.6
06:45 1003 29.62 832 24.57 11.6 52.8 36 -3 26.5
06:50 1003 29.62 832 24.57 11.5 52.7 37 -2.8 27
06:55 1003 29.62 832 24.57 11.4 52.6 36 -3.2 26.3
07:00 1002 29.59 831 24.54 11.4 52.5 37 -2.6 27.3
07:05 1002 29.59 831 24.54 11.4 52.5 37 -2.6 27.3
07:10 1002 29.59 831 24.54 11.3 52.3 38 -2.6 27.3
07:15 1002 29.59 831 24.54 11.5 52.7 37 -2.5 27.5
07:20 1002 29.59 831 24.54 11.1 51.9 38 -2.8 27
07:25 1001 29.56 830 24.51 11.1 52 37 -2.9 26.7
07:30 1001 29.56 830 24.51 11.2 52.2 37 -2.8 27
07:35 1001 29.56 830 24.51 11.3 52.4 37 -2.7 27.2
07:40 1001 29.56 830 24.51 11.2 52.2 38 -2.5 27.5
07:45 1001 29.56 830 24.51 11.3 52.3 38 -2.5 27.4
07:50 1001 29.56 830 24.51 11.1 52 40 -1.9 28.5
07:55 1001 29.56 830 24.51 11.1 51.9 40 -2 28.4
08:00 1001 29.56 830 24.51 10.8 51.5 40 -2.2 28
08:05 1001 29.56 830 24.51 11 51.7 40 -2.2 28.1
08:10 1001 29.56 830 24.51 10.9 51.6 40 -2.1 28.3
08:15 1001 29.56 830 24.51 10.9 51.5 41 -1.7 29
08:20 1001 29.56 830 24.51 10.8 51.4 39 -2.6 27.4
08:25 1001 29.56 830 24.51 11.1 52 39 -2.3 27.9
08:30 1001 29.56 831 24.54 11.1 51.9 40 -1.9 28.5
08:35 1001 29.56 831 24.54 11 51.9 42 -1.4 29.5
08:40 1001 29.56 831 24.54 10.8 51.4 42 -1.4 29.4
08:45 1001 29.56 830 24.51 10.6 51.1 45 -0.9 30.3
08:50 1001 29.56 830 24.51 10.2 50.3 45 -1 30.1
08:55 1001 29.56 830 24.51 10.3 50.5 44 -1.4 29.5
09:00 1001 29.56 830 24.51 10.4 50.7 44 -1.2 29.9
09:05 1000 29.53 830 24.51 10.6 51.1 43 -1.5 29.3
09:10 1000 29.53 829 24.48 10.6 51 43 -1.6 29.1
09:15 1000 29.53 829 24.48 10.7 51.3 41 -1.8 28.7
09:20 1000 29.53 830 24.51 10.9 51.6 42 -1.5 29.3
09:25 1000 29.53 829 24.48 10.7 51.3 43 -1.3 29.7
09:30 1000 29.53 829 24.48 10.7 51.2 42 -1.5 29.2
09:35 1000 29.53 829 24.48 10.8 51.4 41 -1.8 28.8
09:40 1000 29.53 829 24.48 10.8 51.4 44 -1 30.2
09:45 1000 29.53 829 24.48 10.6 51.1 42 -1.8 28.8
09:50 1000 29.53 829 24.48 10.9 51.5 42 -1.5 29.2
09:55 1000 29.53 829 24.48 10.7 51.3 43 -1.4 29.5
10:00 1000 29.53 829 24.48 10.8 51.5 42 -1.5 29.2
10:05 1000 29.53 829 24.48 10.8 51.4 42 -1.4 29.5
10:10 1000 29.53 829 24.48 10.9 51.6 41 -1.8 28.8
10:15 1000 29.53 829 24.48 11.1 52 41 -1.7 29
10:20 1000 29.53 829 24.48 11.1 51.9 42 -1.3 29.6
10:25 1000 29.53 829 24.48 10.7 51.3 44 -1 30.3
10:30 1000 29.53 829 24.48 10.3 50.6 46 -0.8 30.5
10:35 1000 29.53 829 24.48 10.7 51.3 42 -1.5 29.3
10:40 1000 29.53 829 24.48 10.8 51.5 45 -0.5 31
10:45 1000 29.53 829 24.48 10.6 51.2 44 -1 30.1
10:50 1000 29.53 829 24.48 10.7 51.2 42 -1.6 29.2
10:55 1000 29.53 829 24.48 11 51.8 41 -1.5 29.2
11:00 1000 29.53 829 24.48 11.2 52.2 41 -1.6 29.1
11:05 1000 29.53 829 24.48 11.4 52.4 41 -1.3 29.7
11:10 1000 29.53 829 24.48 11.1 52 41 -1.7 29
11:15 1000 29.53 829 24.48 11.2 52.2 40 -1.7 28.9
11:20 1000 29.53 829 24.48 11.4 52.6 41 -1.2 29.9
11:25 999 29.5 829 24.48 11.4 52.5 41 -1.3 29.7
11:30 1000 29.53 829 24.48 11.6 52.8 40 -1.5 29.3
11:35 1000 29.53 829 24.48 11.5 52.8 41 -1.2 29.8
11:40 1000 29.53 829 24.48 11.4 52.6 41 -1.2 29.8
11:45 1000 29.53 829 24.48 11.4 52.5 42 -1.1 30
11:50 1000 29.53 829 24.48 11.2 52.2 43 -0.7 30.7
11:55 1000 29.53 829 24.48 11.4 52.5 41 -1.4 29.5
12:00 999 29.5 829 24.48 11.6 52.9 40 -1.6 29.2
12:05 1000 29.53 829 24.48 11.7 53.1 40 -1.2 29.8
12:10 999 29.5 829 24.48 11.7 53.1 40 -1.2 29.8
12:15 999 29.5 829 24.48 11.7 53 40 -1.3 29.7
12:20 999 29.5 828 24.45 11.7 53.1 39 -1.5 29.2
12:25 999 29.5 828 24.45 11.9 53.4 38 -1.8 28.8
12:30 999 29.5 828 24.45 12.1 53.7 40 -1.1 30.1
12:35 999 29.5 828 24.45 12.1 53.8 39 -1.3 29.7
12:40 999 29.5 828 24.45 12.2 54 39 -1.3 29.7
12:45 999 29.5 828 24.45 12.4 54.3 38 -1.3 29.6
12:50 999 29.5 828 24.45 12.3 54.2 39 -1.1 30.1
12:55 998 29.47 828 24.45 12.3 54.2 39 -1.2 29.8
13:00 998 29.47 828 24.45 12.3 54.2 40 -0.9 30.3
13:05 998 29.47 827 24.42 12.4 54.2 39 -1 30.2
13:10 998 29.47 827 24.42 12.4 54.4 38 -1.4 29.5
13:15 998 29.47 827 24.42 12.5 54.6 38 -1.2 29.9
13:20 998 29.47 827 24.42 12.5 54.6 37 -1.5 29.3
13:25 998 29.47 827 24.42 12.6 54.7 37 -1.5 29.2
13:30 997 29.44 826 24.39 12.7 54.8 37 -1.4 29.4
13:35 997 29.44 826 24.39 12.7 54.8 37 -1.7 29
13:40 997 29.44 826 24.39 12.8 55 36 -1.8 28.7
13:45 997 29.44 826 24.39 12.8 55 37 -1.6 29
13:50 997 29.44 826 24.39 12.7 54.8 37 -1.7 28.9
13:55 997 29.44 826 24.39 12.7 54.9 37 -1.7 28.9
14:00 997 29.44 826 24.39 12.8 55 36 -2 28.3
14:05 996 29.41 826 24.39 12.7 54.9 37 -1.6 29.2
14:10 996 29.41 826 24.39 12.6 54.7 37 -1.5 29.2
14:15 996 29.41 825 24.36 12.6 54.7 37 -1.5 29.3
14:20 996 29.41 825 24.36 12.4 54.3 38 -1.3 29.6
14:25 996 29.41 825 24.36 12.5 54.5 36 -2 28.3
14:30 996 29.41 825 24.36 12.7 54.8 36 -1.9 28.5
14:35 996 29.41 825 24.36 12.7 54.9 36 -1.8 28.8
14:40 996 29.41 825 24.36 12.6 54.7 37 -1.6 29.1
14:45 996 29.41 825 24.36 12.6 54.7 35 -2.3 27.9
14:50 996 29.41 825 24.36 12.8 55 36 -1.9 28.6
14:55 996 29.41 825 24.36 12.6 54.6 36 -2.1 28.2
15:00 996 29.41 825 24.36 12.8 55 35 -2.2 28.1
15:05 996 29.41 825 24.36 12.7 54.8 37 -1.6 29.2
15:10 996 29.41 825 24.36 12.6 54.7 36 -2 28.5
15:15 996 29.41 825 24.36 12.7 54.8 36 -1.9 28.6
15:20 996 29.41 825 24.36 12.7 54.9 36 -1.9 28.5
15:25 996 29.41 825 24.36 12.6 54.7 37 -1.7 28.9
15:30 996 29.41 825 24.36 12.7 54.8 36 -2 28.4
15:35 996 29.41 825 24.36 12.7 54.8 36 -1.8 28.8
15:40 996 29.41 825 24.36 12.6 54.7 36 -1.9 28.6
15:45 996 29.41 825 24.36 12.7 54.8 37 -1.6 29
15:50 996 29.41 825 24.36 12.5 54.6 37 -1.8 28.8
15:55 996 29.41 825 24.36 12.5 54.6 36 -1.9 28.6
16:00 996 29.41 825 24.36 12.4 54.4 38 -1.5 29.2
16:05 996 29.41 826 24.39 12.5 54.4 37 -1.7 28.9
16:10 996 29.41 826 24.39 12.4 54.4 38 -1.6 29.1
16:15 996 29.41 826 24.39 12.4 54.3 38 -1.3 29.6
16:20 996 29.41 825 24.36 12.3 54.2 37 -1.8 28.8
16:25 996 29.41 826 24.39 12.2 54 39 -1.2 29.9
16:30 997 29.44 826 24.39 12.1 53.8 38 -1.7 29
16:35 997 29.44 826 24.39 12 53.7 39 -1.6 29.1
16:40 997 29.44 826 24.39 12 53.7 38 -1.6 29.1
16:45 997 29.44 826 24.39 12.1 53.7 39 -1.5 29.2
16:50 997 29.44 826 24.39 12 53.6 40 -1.2 29.8
16:55 997 29.44 826 24.39 11.9 53.3 39 -1.7 28.9
17:00 997 29.44 826 24.39 11.9 53.5 41 -0.9 30.3
17:05 997 29.44 826 24.39 11.7 53.1 39 -1.7 29
17:10 997 29.44 826 24.39 11.8 53.3 39 -1.6 29.1
17:15 997 29.44 826 24.39 11.8 53.2 40 -1.4 29.5
17:20 997 29.44 826 24.39 11.7 53 39 -1.6 29
17:25 997 29.44 827 24.42 11.8 53.2 40 -1.2 29.9
17:30 998 29.47 827 24.42 11.7 53.1 40 -1.3 29.6
17:35 998 29.47 827 24.42 11.6 53 42 -0.8 30.5
17:40 998 29.47 827 24.42 11.3 52.4 40 -1.6 29.1
17:45 998 29.47 827 24.42 11.5 52.7 43 -0.6 30.9
17:50 998 29.47 828 24.45 11.1 51.9 45 -0.5 31.1
17:55 999 29.5 828 24.45 10.9 51.5 46 -0.4 31.4
18:00 999 29.5 828 24.45 10.6 51.2 48 0 32
18:05 999 29.5 828 24.45 10.4 50.8 48 0 32
18:10 999 29.5 828 24.45 10.3 50.5 51 0.7 33.2
18:15 999 29.5 829 24.48 9.9 49.8 54 1.1 34
18:20 999 29.5 829 24.48 9.6 49.3 56 1.3 34.3
18:25 1000 29.53 829 24.48 9.4 48.8 59 1.8 35.3
18:30 1000 29.53 829 24.48 9.2 48.6 58 1.3 34.4
18:35 1000 29.53 829 24.48 9.1 48.5 59 1.6 34.9
18:40 1000 29.53 829 24.48 8.8 47.9 63 2.1 35.8
18:45 1000 29.53 829 24.48 8.4 47.1 65 2.2 36
18:50 1001 29.56 831 24.54 7.6 45.7 68 2.2 35.9
18:55 1002 29.59 831 24.54 3.8 38.8 84 1.3 34.3
19:00 1002 29.59 831 24.54 1.8 35.2 90 0.3 32.5
19:05 1003 29.62 832 24.57 1.3 34.3 92 0.1 32.2
19:10 1003 29.62 832 24.57 1.1 34.1 93 0.1 32.2
19:15 1003 29.62 832 24.57 1.1 33.9 94 0.2 32.3
19:20 1003 29.62 833 24.6 1.1 34 94 0.2 32.4
19:25 1004 29.65 833 24.6 1.1 33.9 94 0.2 32.3
19:30 1004 29.65 833 24.6 0.9 33.6 94 0.1 32.1
19:35 1004 29.65 833 24.6 0.8 33.4 94 -0.1 31.9
19:40 1004 29.65 834 24.63 0.6 33.1 95 -0.2 31.7
19:45 1005 29.68 834 24.63 0.4 32.8 95 -0.3 31.5
19:50 1005 29.68 834 24.63 0.3 32.6 95 -0.3 31.4
19:55 1005 29.68 834 24.63 0.3 32.5 95 -0.4 31.4
20:00 1005 29.68 834 24.63 0.2 32.4 96 -0.4 31.3
20:05 1005 29.68 835 24.66 0.2 32.3 96 -0.4 31.2
20:10 1006 29.71 835 24.66 0.1 32.2 96 -0.4 31.2
20:15 1006 29.71 835 24.66 0.1 32.1 96 -0.5 31.2
20:20 1006 29.71 835 24.66 0.1 32.1 97 -0.4 31.2
20:25 1006 29.71 835 24.66 0.1 32.1 97 -0.4 31.3
20:30 1006 29.71 835 24.66 0.1 32.2 97 -0.4 31.3
20:35 1006 29.71 835 24.66 0.1 32.2 97 -0.3 31.4
20:40 1006 29.71 835 24.66 0.2 32.4 96 -0.3 31.5
20:45 1006 29.71 835 24.66 0.4 32.7 96 -0.3 31.5
20:50 1006 29.71 835 24.66 0.5 32.9 95 -0.3 31.5
20:55 1006 29.71 835 24.66 0.8 33.4 93 -0.2 31.7
21:00 1006 29.71 835 24.66 0.8 33.5 93 -0.2 31.6
21:05 1006 29.71 835 24.66 1 33.7 92 -0.3 31.5
21:10 1006 29.71 835 24.66 1.2 34.2 88 -0.5 31.1
21:15 1006 29.71 835 24.66 1.7 35.1 83 -0.9 30.4
21:20 1006 29.71 836 24.69 2.1 35.7 80 -1.1 30.1
21:25 1007 29.74 836 24.69 2.3 36.2 79 -1 30.2
21:30 1007 29.74 836 24.69 2.3 36.1 78 -1.1 30
21:35 1007 29.74 836 24.69 2.3 36.1 77 -1.3 29.6
21:40 1007 29.74 836 24.69 2.2 36 78 -1.2 29.8
21:45 1007 29.74 836 24.69 2.1 35.8 80 -1 30.2
21:50 1008 29.77 837 24.72 2 35.6 77 -1.5 29.2
21:55 1008 29.77 837 24.72 2 35.6 76 -1.9 28.7
22:00 1008 29.77 837 24.72 2.1 35.7 73 -2.4 27.8
22:05 1008 29.77 837 24.72 2.1 35.8 70 -2.8 26.9
22:10 1008 29.77 837 24.72 2.1 35.9 71 -2.5 27.5
22:15 1008 29.77 837 24.72 2 35.7 69 -3 26.6
22:20 1008 29.77 837 24.72 2 35.6 70 -2.8 26.9
22:25 1009 29.8 838 24.75 1.9 35.5 70 -2.9 26.8
22:30 1009 29.8 838 24.75 1.9 35.4 70 -3 26.6
22:35 1009 29.8 838 24.75 1.8 35.3 69 -3.2 26.3
22:40 1009 29.8 838 24.75 1.8 35.2 71 -3 26.6
22:45 1009 29.8 838 24.75 1.6 34.8 70 -3.4 25.9
22:50 1009 29.8 839 24.78 1.6 34.8 68 -3.6 25.5
22:55 1010 29.83 839 24.78 1.7 35.1 68 -3.5 25.7
23:00 1009 29.8 839 24.78 1.6 34.9 65 -4.2 24.5
23:05 1010 29.83 839 24.78 1.8 35.2 58 -5.5 22.1
23:10 1010 29.83 839 24.78 1.8 35.3 59 -5.2 22.6
23:15 1010 29.83 839 24.78 1.6 35 62 -4.8 23.3
23:20 1010 29.83 839 24.78 1.4 34.6 63 -4.9 23.2
23:25 1010 29.83 839 24.78 1.4 34.4 62 -5.1 22.8
23:30 1010 29.83 840 24.81 1.4 34.5 64 -4.6 23.6
23:35 1011 29.85 840 24.81 1.1 34 67 -4.3 24.2
23:40 1011 29.85 840 24.81 1 33.8 64 -5.1 22.9
23:45 1011 29.85 840 24.81 1.3 34.3 62 -5.3 22.5
23:50 1011 29.85 840 24.81 1.4 34.5 63 -4.9 23.2
23:55 1011 29.85 840 24.81 1.3 34.3 62 -5.2 22.6
24:00 1011 29.85 840 24.81 1.2 34.2 60 -5.8 21.6